Tiempo atmosférico en la estación meteorológica de Ourense, Ourense (143 m.)



Fecha
DESCASC
Temp. máxima en grados centígrados (hora)
DESCASC
Temp. mínima en grados centígrados (hora)
DESCASC
Temp. media en grados centígrados
DESCASC
Racha de viento máxima en m/sg (hora)
DESCASC
Velocidad máxima media en intervalos de 10 minutos(hora)
DESCASC
Precipitaciones diarias en mm
DESCASC
Precipitaciones de 00:00 a 06:00 en mm
DESCASC
Precipitaciones de 06:00 a 12:00 en mm
DESCASC
Precipitaciones de 12:00 a 18:00 en mm
DESCASC
Precipitaciones de 18:00 a 24:00 en mm
DESCASC
11-12-2019 13.7 (12:20) 6.8 (10:20) 10.3 6.39 (15:00) 2.5 (15:00) 10.2 9.4 0 0.4 0.4
08-12-2019 14.2 (16:40) 7.1 (00:00) 10.6 1.94 (13:20) 1.11 (23:10) 3 0 3 0 0
07-12-2019 13.2 (15:40) 3.5 (00:00) 8.3 2.78 (06:20) 1.67 (06:20) 0 0 0 0 0
06-12-2019 12.1 (17:20) 2.2 (00:00) 7.2 4.17 (08:30) 1.94 (08:30) 0 0 0 0 0
05-12-2019 15.3 (16:20) -0.9 (-00:0) 7.2 2.78 (16:40) 1.39 (16:40) 0 0 0 0 0
04-12-2019 11.7 (16:20) -0.6 (01:40) 5.5 2.78 (11:30) 1.67 (11:10) 0 0 0 0 0
03-12-2019 11.6 (16:40) -0.6 (-00:0) 5.5 4.17 (14:30) 2.22 (14:30) 0 0 0 0 0
02-12-2019 14.8 (13:30) 4.4 (00:00) 9.6 6.94 (18:00) 2.78 (15:20) 0 0 0 0 0
01-12-2019 14.5 (16:50) 8.2 (00:00) 11.3 7.78 (01:30) 3.61 (02:10) 16.8 13.4 3.4 0 0
30-11-2019 16.2 (15:00) 9.8 (00:00) 13 7.5 (06:00) 3.61 (17:10) 11.4 7.6 1.8 0.8 1.2
29-11-2019 17.5 (15:50) 10 (00:00) 13.8 2.78 (06:20) 1.67 (14:30) 0.8 0 0 0 0.8
28-11-2019 15.9 (19:30) 12.3 (01:50) 14.1 8.89 (19:00) 3.61 (18:50) 4 0 2.2 1.8 0
27-11-2019 13.8 (12:20) 11.8 (00:00) 12.8 8.89 (01:30) 4.17 (01:40) 1.2 0 0.4 0.6 0.2
26-11-2019 19.7 (14:50) 12.1 (00:00) 15.9 13.33 (20:10) 5.28 (15:30) 6.4 1.2 0.2 4 1
25-11-2019 17.1 (14:00) 12.7 (22:50) 14.9 7.5 (14:40) 3.33 (12:20) 0.2 0.2 0 0 0
24-11-2019 15.4 (22:20) 4.4 (00:00) 9.9 6.67 (17:50) 3.33 (18:00) 1.4 0 0 0.4 1
23-11-2019 13.6 (15:50) 5.7 (00:00) 9.7 6.39 (13:20) 2.78 (13:20) 4.2 2.2 0.6 1.2 0.2
22-11-2019 15.8 (11:10) 8.3 (00:00) 12.1 10.56 (11:20) 5.56 (11:20) 18.8 2.4 5.4 8.2 2.8
21-11-2019 15.7 (16:10) 4.7 (00:00) 10.2 7.5 (14:20) 3.06 (13:50) 2.6 2.6 0 0 0
20-11-2019 11 (14:00) 6.8 (23:30) 8.9 6.11 (15:20) 2.22 (15:10) 0.6 0 0 0.6 0
19-11-2019 12 (16:20) 4 (00:00) 8 5 (18:40) 2.22 (16:30) 3.4 0 0 0.2 3.2
18-11-2019 14.7 (15:10) 4.4 (00:00) 9.5 3.61 (14:50) 1.67 (13:00) 0 0 0 0 0
17-11-2019 14.5 (15:30) 8.4 (00:00) 11.4 7.5 (15:50) 2.22 (15:30) 2.6 0 2.2 0.2 0.2
16-11-2019 11.8 (15:20) 2.6 (00:00) 7.2 5 (16:10) 2.22 (15:20) 0.2 0 0 0 0.2
15-11-2019 11.3 (14:00) 4.5 (00:00) 7.9 8.33 (18:10) 3.06 (14:00) 0.6 0.2 0 0.2 0.2

Gráficas

Temp. máximas Temp. mínimas Temp. medias Precipitaciones Rachas de viento máximas Velocidades máximas media en intervalos de 10 minutos

Datos horarios

Fecha y hora oficial Temperatura (ºC) Velocidad del viento (km/h) Dirección del viento Racha (km/h) Dirección de racha Precipitación (mm) Presión (hPa) Tendencia (hPa) Humedad (%)
2019-12-14 23:00:00 13.6 5 Sur 10 Sudeste 0 994.8 -1.3 76
2019-12-14 22:00:00 13.8 5 Sudeste 15 Sudeste 0 995.2 -1.1 72
2019-12-14 21:00:00 12.9 3 Sudeste 16 Sudeste 0 995.5 -1.1 82
2019-12-14 20:00:00 13.1 9 Sudeste 18 Sudeste 0 996.1 -0.5 82
2019-12-14 19:00:00 13.5 5 Sudeste 20 Sur 0 996.3 -0.5 78
2019-12-14 18:00:00 13.7 5 Sudoeste 23 Sudoeste 0 996.6 -0.5 78
2019-12-14 17:00:00 14.3 3 Sudoeste 25 Sudoeste 0 996.6 -1.2 75
2019-12-14 16:00:00 14.4 14 Sudoeste 40 Sudoeste 0 996.8 -1.6 73
2019-12-14 15:00:00 15.8 14 Sudoeste 34 Oeste 0 997.1 -2.1 68
2019-12-14 14:00:00 15.1 13 Sudoeste 33 Sudoeste 0 997.8 -1.4 72
2019-12-14 13:00:00 14.5 9 Sudoeste 25 Oeste 0 998.4 -1 79
2019-12-14 12:00:00 13.3 6 Sudeste 17 Sur 0 999.2 0.1 81
2019-12-14 11:00:00 12.6 4 Sur 17 Sur 0 999.2 -0.1 85
2019-12-14 10:00:00 11.8 5 Sur 13 Sudeste 0 999.4 0 92
2019-12-14 09:00:00 11.5 6 Sudeste 14 Sudeste 0.2 999.1 -0.4 94
2019-12-14 08:00:00 11.5 7 Sudeste 14 Sudeste 0 999.3 -0.6 92
2019-12-14 07:00:00 11.5 6 Sudeste 15 Sudeste 0 999.4 -0.7 90
2019-12-14 06:00:00 11.7 6 Sudeste 15 Sudeste 0 999.5 -0.6 88
2019-12-14 05:00:00 11.8 6 Sudeste 18 Sur 0 999.9 -0.4 89
2019-12-14 04:00:00 12.4 7 Sudeste 15 Sur 0 1000.1 -0.6 86
2019-12-14 03:00:00 12.5 7 Sur 14 Sur 0 1000.1 -0.8 86
2019-12-14 02:00:00 12.6 6 Sudeste 13 Sudeste 0 1000.3 -0.5 85
2019-12-14 01:00:00 12.5 4 Sur 13 Sur 0 1000.7 -0.4 86
2019-12-14 00:00:00 12.6 6 Sudeste 20 Sur 0 1000.9 -0.6 86
2019-12-13 23:00:00 12.7 8 Sur 18 Sur 0 1000.8 -0.2 84
2019-12-13 22:00:00 12.6 6 Sur 21 Sudoeste 0 1001.1 0.2 85
2019-12-13 21:00:00 12.7 6 Sur 24 Sur 0 1001.5 0.7 84
2019-12-13 20:00:00 13.3 14 Sur 26 Sur 0 1001 0.6 78
2019-12-13 19:00:00 13.4 10 Sur 18 Sur 0 1000.9 0.8 80
2019-12-13 18:00:00 13.6 9 Sudeste 14 Sudeste 0.2 1000.8 0.7 87
2019-12-13 17:00:00 14.5 3 Sudoeste 14 Sudoeste 0 1000.4 0.1 86
2019-12-13 16:00:00 14.7 6 Sudoeste 21 Sur 0 1000.1 -0.5 85
2019-12-13 15:00:00 14.8 5 Sur 17 Sudoeste 0 1000.1 -1 85
2019-12-13 14:00:00 14.7 7 Sur 15 Sudoeste 0 1000.3 -0.4 84
2019-12-13 13:00:00 14.7 10 Sudoeste 21 Sur 0 1000.6 0.3 85
2019-12-13 12:00:00 15 7 Sudoeste 14 Sudoeste 0 1001.1 1 84
2019-12-13 11:00:00 14.5 4 Sudeste 11 Sur 0 1000.7 1.4 85
2019-12-13 10:00:00 14 3 Sur 6 Norte 0 1000.3 1.2 88
2019-12-13 09:00:00 13.9 2 Sudoeste 18 Oeste 0 1000.1 1.4 87
2019-12-13 08:00:00 13.8 3 Sudoeste 14 Sudoeste 0 999.3 0.7 86
2019-12-13 07:00:00 13.5 4 Sur 12 Sur 0 999.1 0.6 89
2019-12-13 06:00:00 13.5 6 Sudoeste 17 Sur 0 998.7 0.9 87
2019-12-13 05:00:00 13.5 5 Sudoeste 14 Sudoeste 0 998.6 0.4 86
2019-12-13 04:00:00 13.7 8 Sur 19 Sur 0 998.5 0.4 87
2019-12-13 03:00:00 14 4 Sudoeste 25 Oeste 0 997.8 -0.2 85
2019-12-13 02:00:00 14.4 10 Oeste 26 Oeste 0 998.2 0.7 86
2019-12-13 01:00:00 14.4 9 Sur 17 Sur 0 998.1 0.9 86
2019-12-13 00:00:00 14.3 5 Sur 19 Sudoeste 0 998 1.1 87
2019-12-12 23:00:00 14.2 10 Sudoeste 21 Sudoeste 0 997.5 0.7 89
2019-12-12 22:00:00 13.7 3 Sudeste 9 Sudeste 0.2 997.2 0.5 92
2019-12-12 21:00:00 13.8 5 Sur 13 Sudeste 0.2 996.9 0.6 92
2019-12-12 20:00:00 13.6 6 Sudeste 12 Sudeste 0.2 996.8 0.6 93
2019-12-12 19:00:00 13.4 6 Sur 12 Sur 0.6 996.7 0.8 94
2019-12-12 18:00:00 13.3 5 Sudeste 12 Sudoeste 1 996.3 -0.2 93
2019-12-12 17:00:00 13.3 6 Sur 17 Sur 0.8 996.2 -1.3 93
2019-12-12 16:00:00 13 7 Sur 19 Sudoeste 1.4 995.9 -2.7 93
2019-12-12 15:00:00 12.7 9 Sudoeste 26 Sudoeste 1.8 996.5 -3.8 91
2019-12-12 14:00:00 12.1 8 Sudoeste 21 Sudoeste 1.4 997.5 -3.2 92
2019-12-12 13:00:00 11.7 7 Sur 23 Sudoeste 2 998.6 -2.5 92
2019-12-12 12:00:00 11.1 9 Sur 19 Oeste 1.8 1000.3 -1.4 91
2019-12-12 11:00:00 10.5 5 Sur 19 Sur 0.6 1000.7 -1.2 91
2019-12-12 10:00:00 10.3 5 Sur 19 Sudeste 2 1001.1 -1.5 93
2019-12-12 09:00:00 10 5 Sur 14 Sur 1.8 1001.7 -1.5 93
2019-12-12 08:00:00 10 4 Sur 15 Sudoeste 1 1001.9 -1.9 90
2019-12-12 07:00:00 9.9 3 Sudeste 12 Sudeste 1.8 1002.6 -2.5 93
2019-12-12 06:00:00 9.7 7 Sudeste 12 Sudeste 0.6 1003.2 -2.6 91
2019-12-12 05:00:00 9.7 5 Sudeste 12 Sur 0.2 1003.8 -2.9 91
2019-12-12 04:00:00 9.7 5 Sudoeste 16 Sur 0.2 1005.1 -2.1 91
2019-12-12 03:00:00 8.9 4 Sudeste 9 Sur 0.2 1005.8 -2.3 96
2019-12-12 02:00:00 8.1 3 Oeste 8 Oeste 0 1006.7 -1.8 97
2019-12-12 01:00:00 8.1 0 Calma 6 Oeste 0.2 1007.2 -1.4 96
2019-12-12 00:00:00 8.1 2 Sudeste 6 Oeste 0.2 1008.1 -0.9 95
2019-12-11 23:00:00 8.4 2 Sur 6 Sudeste 0 1008.5 -0.9 93
2019-12-11 22:00:00 9 2 Sudeste 8 Sudeste 0 1008.6 -0.9 88
2019-12-11 21:00:00 8.7 4 Sudeste 8 Sudeste 0 1009 -0.4 91
2019-12-11 20:00:00 9.1 4 Sudeste 8 Sudeste 0 1009.4 -0.2 90
2019-12-11 19:00:00 9.5 3 Sudeste 10 Sudeste 0.2 1009.5 0.3 87
2019-12-11 18:00:00 10 4 Sudeste 10 Sudeste 0.2 1009.4 -0.1 85
2019-12-11 17:00:00 10.8 3 Sur 22 Sudoeste 0.2 1009.6 -0.3 80
2019-12-11 16:00:00 11.6 9 Sur 15 Sudoeste 0 1009.2 -1.3 74
2019-12-11 15:00:00 11.6 9 Sudoeste 23 Oeste 0 1009.5 -1.7 69
2019-12-11 14:00:00 11.6 5 Sudoeste 19 Oeste 0 1009.9 -1 64
2019-12-11 13:00:00 11.7 5 Sudoeste 12 Sudoeste 0 1010.5 0.2 63
2019-12-11 12:00:00 11.4 3 Sudeste 6 Sur 0 1011.2 1.7 75
2019-12-11 11:00:00 8.5 2 Sudeste 5 Nordeste 0 1010.9 2.3 93
2019-12-11 10:00:00 6.9 2 Sudeste 4 Sudeste 0 1010.3 2.7 95
2019-12-11 09:00:00 7.4 3 Este 7 Nordeste 0 1009.5 2.8 94
2019-12-11 08:00:00 8.8 3 Sur 5 Norte 0 1008.6 2.2 93
2019-12-11 07:00:00 9.2 2 Sudoeste 11 Oeste 0 1007.6 2.4 92
2019-12-11 06:00:00 9.1 3 Nordeste 7 Este 0.2 1006.7 2.2 96
2019-12-11 05:00:00 9.1 4 Este 9 Nordeste 2.2 1006.4 1.8 97
2019-12-11 04:00:00 8.9 6 Norte 14 Norte 2 1005.2 0.1 96
2019-12-11 03:00:00 8.5 2 Sudoeste 9 Oeste 4.4 1004.5 -1.1 96
2019-12-11 02:00:00 8.6 2 Sudeste 8 Oeste 0.6 1004.6 -1.6 94
2019-12-11 01:00:00 8.6 3 Oeste 6 Oeste 0 1005.1 -1.6 93
2019-12-11 00:00:00 8.5 0 Calma 5 Oeste 0 1005.6 -1.6 93
2019-12-10 23:00:00 8.4 0 Calma 8 Oeste 0 1006.2 -1 92
2019-12-10 22:00:00 8.1 3 Este 6 Oeste 0 1006.7 -0.6 92
2019-12-10 21:00:00 7.9 0 Calma 6 Sudoeste 0 1007.2 -0.2 92
2019-12-10 20:00:00 7.7 0 Calma 6 Oeste 0 1007.2 -0.7 92
2019-12-10 19:00:00 7.9 4 Este 6 Sudeste 0 1007.3 -0.9 90
2019-12-10 18:00:00 8.4 2 Sur 12 Oeste 0 1007.4 -1.3 85
2019-12-10 17:00:00 9 3 Sudoeste 6 Sudoeste 0 1007.9 -1.8 83
2019-12-10 16:00:00 7.9 3 Sur 5 Sudoeste 0 1008.2 -2.5 86
2019-12-10 15:00:00 7.4 2 Sur 6 Sur 0 1008.7 -3.3 87
2019-12-10 14:00:00 6.8 3 Sur 8 Sudoeste 0 1009.7 -2.5 89
2019-12-10 13:00:00 5.9 3 Sudoeste 7 Oeste 0 1010.7 -1.9 92
2019-12-10 12:00:00 5.3 4 Sudoeste 7 Oeste 0 1012 -0.7 97
2019-12-10 11:00:00 4.4 2 Sur 7 Sudeste 0 1012.2 -0.2 98
2019-12-10 10:00:00 3.7 4 Sudeste 11 Sudeste 0 1012.6 -0.1 98
2019-12-10 09:00:00 3.7 3 Sudeste 8 Sudeste 0 1012.7 0 99
2019-12-10 08:00:00 3.6 5 Sur 11 Sur 0 1012.4 -0.7 98
2019-12-10 07:00:00 3.8 3 Sudeste 5 Sur 0 1012.7 -0.9 99
2019-12-10 06:00:00 3.5 4 Sudeste 7 Este 0 1012.7 -1.3 98
2019-12-10 05:00:00 3.6 5 Sudeste 8 Sudeste 0 1013.1 -1.2 98
2019-12-10 04:00:00 3.8 4 Sur 11 Sur 0 1013.6 -1.1 98
2019-12-10 03:00:00 4 4 Sudeste 9 Sudeste 0 1014 -1.4 97
2019-12-10 02:00:00 4.4 3 Sudeste 9 Sur 0 1014.3 -0.8 97
2019-12-10 01:00:00 4.7 6 Sudeste 12 Sur 0 1014.7 -0.5 97
2019-12-10 00:00:00 5.2 4 Sudoeste 8 Sudoeste 0 1015.4 0.1 97
2019-12-09 23:00:00 5.3 3 Sudeste 6 Sur 0 1015.1 0 96
2019-12-09 22:00:00 5.4 2 Sur 5 Oeste 0 1015.2 0.4 96
2019-12-09 21:00:00 5.4 0 Calma 5 Sudeste 0 1015.3 0.5 94
2019-12-09 20:00:00 6.3 0 Calma 3 Sudeste 0 1015.1 0.8 92
2019-12-09 19:00:00 7.7 0 Calma 8 Este 0 1014.8 0.4 90
2019-12-09 18:00:00 9.6 2 Sur 4 Sudoeste 0 1014.8 0.3 85
2019-12-09 17:00:00 10.8 3 Sur 5 Sudoeste 0 1014.3 -0.8 81
2019-12-09 16:00:00 9.9 2 Sudoeste 8 Oeste 0 1014.4 -1.4 85
2019-12-09 15:00:00 9.7 4 Oeste 7 Oeste 0 1014.5 -1.7 84
2019-12-09 14:00:00 9.4 4 Oeste 8 Oeste 0 1015.1 -1 84
2019-12-09 13:00:00 8.2 4 Sudoeste 8 Este 0 1015.8 0.2 87
2019-12-09 12:00:00 7 4 Sudeste 6 Oeste 0 1016.2 1 94
2019-12-09 11:00:00 5.9 2 Sur 7 Sudoeste 0 1016.1 1.3 96
2019-12-09 10:00:00 5.6 2 Sur 5 Nordeste 0 1015.6 1.4 96
2019-12-09 09:00:00 5.4 3 Nordeste 7 Norte 0 1015.2 0.8 96
2019-12-09 08:00:00 5.8 4 Nordeste 8 Sudoeste 0 1014.8 1.1 96
2019-12-09 07:00:00 5.8 3 Sur 7 Sudoeste 0 1014.2 0.8 95
2019-12-09 06:00:00 5.9 3 Nordeste 9 Oeste 0 1014.4 1.6 96
2019-12-09 05:00:00 6.1 3 Oeste 9 Norte 0 1013.7 0.7 95
2019-12-09 04:00:00 6.6 3 Norte 12 Norte 0 1013.4 0.5 97
2019-12-09 03:00:00 6.9 2 Oeste 5 Oeste 0 1012.8 0.5 98
2019-12-09 02:00:00 6.9 2 Oeste 8 Oeste 0 1013 1.1 98
2019-12-09 01:00:00 7.1 4 Oeste 8 Noroeste 0 1012.9 1.7 98
2019-12-09 00:00:00 7.1 0 Calma 6 Este 0 1012.3 1.9 97
2019-12-08 23:00:00 7.8 2 Este 6 Sudoeste 0 1011.9 2 96
2019-12-08 22:00:00 8.3 0 Calma 5 Este 0 1011.2 2.3 95
2019-12-08 21:00:00 9.6 2 Nordeste 6 Este 0 1010.4 2.3 95
2019-12-08 20:00:00 10.7 2 Sudoeste 5 Este 0 1009.9 2.5 95
2019-12-08 19:00:00 11.6 0 Calma 5 Nordeste 0 1008.9 1.8 93
2019-12-08 18:00:00 13.1 4 Nordeste 6 Nordeste 0 1008.1 1.3 92
2019-12-08 17:00:00 14.2 3 Sudoeste 5 Oeste 0 1007.4 0.3 91
2019-12-08 16:00:00 13.6 0 Calma 4 Oeste 0 1007.1 -0.1 92
2019-12-08 15:00:00 13 2 Sudoeste 5 Oeste 0 1006.8 -0.7 94
2019-12-08 14:00:00 12.4 2 Oeste 7 Oeste 0 1007.1 0 95
2019-12-08 13:00:00 12 2 Sudoeste 6 Oeste 0 1007.2 0.6 96
2019-12-08 12:00:00 11.2 2 Oeste 5 Oeste 0 1007.5 1.6 97
2019-12-08 11:00:00 10.7 2 Sur 4 Sudoeste 1.6 1007.1 1 97
2019-12-08 10:00:00 10.3 0 Calma 5 Este 0 1006.6 0.7 97
2019-12-08 09:00:00 10 2 Oeste 4 Oeste 0.8 1005.9 -0.2 96
2019-12-08 08:00:00 10 0 Calma 4 Nordeste 0.6 1006.1 -0.2 96
2019-12-08 07:00:00 9.9 0 Calma 4 Sudeste 0 1005.9 -0.6 95
2019-12-08 06:00:00 9.9 2 Sudoeste 5 Oeste 0 1006.1 -0.4 94
2019-12-08 05:00:00 9.8 3 Sur 5 Oeste 0 1006.3 -0.3 94
2019-12-08 04:00:00 9.7 2 Norte 4 Sudeste 0 1006.5 -0.5 94
2019-12-08 03:00:00 9.6 0 Calma 5 Oeste 0 1006.5 -0.5 95
2019-12-08 02:00:00 9.7 2 Sudeste 4 Oeste 0 1006.6 -0.3 93
2019-12-08 01:00:00 9.6 2 Oeste 4 Oeste 0 1007 0.3 92
2019-12-08 00:00:00 9.5 2 Sudeste 3 Sudeste 0 1007 0.4 91
2019-12-07 23:00:00 9.3 0 Calma 5 Oeste 0 1006.9 0.5 91
2019-12-07 22:00:00 9.2 3 Oeste 5 Oeste 0 1006.7 0.4 92
2019-12-07 21:00:00 9.1 3 Oeste 4 Noroeste 0 1006.6 0.5 89
2019-12-07 20:00:00 9.6 3 Sudoeste 5 Sudoeste 0 1006.4 0.8 87
2019-12-07 19:00:00 11 0 Calma 5 Este 0 1006.3 0.8 83
2019-12-07 18:00:00 12 0 Calma 3 Sudeste 0 1006.1 0.5 79
2019-12-07 17:00:00 12.7 2 Sur 6 Oeste 0 1005.6 -0.7 73
2019-12-07 16:00:00 12.9 3 Sudoeste 9 Oeste 0 1005.5 -1.7 71
2019-12-07 15:00:00 11.9 4 Este 9 Oeste 0 1005.6 -2.5 72
2019-12-07 14:00:00 10.5 5 Oeste 8 Oeste 0 1006.3 -1.9 76
2019-12-07 13:00:00 9.5 3 Nordeste 9 Oeste 0 1007.2 -0.3 79
2019-12-07 12:00:00 7.1 2 Oeste 7 Sur 0 1008.1 0.8 89
2019-12-07 11:00:00 5.3 3 Sur 6 Sudoeste 0 1008.2 1.3 95
2019-12-07 10:00:00 4.8 2 Sudeste 7 Sudeste 0 1007.5 0.9 95
2019-12-07 09:00:00 4.3 3 Sudeste 6 Sudoeste 0 1007.3 0.9 95
2019-12-07 08:00:00 4.3 3 Sudoeste 6 Sur 0 1006.9 0.2 96
2019-12-07 07:00:00 4.1 2 Este 10 Sur 0 1006.6 0 96
2019-12-07 06:00:00 4.5 4 Sur 7 Sudoeste 0 1006.4 -0.3 97
2019-12-07 05:00:00 4.4 3 Sudeste 7 Sudeste 0 1006.7 0.1 97
2019-12-07 04:00:00 4.5 4 Sudeste 9 Sudeste 0 1006.6 -0.5 97
2019-12-07 03:00:00 4.6 2 Sur 5 Sudeste 0 1006.7 -0.4 96
2019-12-07 02:00:00 4.2 2 Nordeste 8 Sudeste 0 1006.6 -0.4 96
2019-12-07 01:00:00 3.5 3 Oeste 5 Sudoeste 0 1007.1 1 95
2019-12-07 00:00:00 3.8 3 Oeste 4 Oeste 0 1007.1 1.2 95
2019-12-06 23:00:00 4 4 Oeste 6 Oeste 0 1007 1.4 94
2019-12-06 22:00:00 4.4 2 Sur 5 Sudeste 0 1006.1 0.9 93
2019-12-06 21:00:00 5.2 0 Calma 5 Oeste 0 1005.9 1.4 91
2019-12-06 20:00:00 6.3 2 Oeste 6 Oeste 0 1005.6 1.1 88
2019-12-06 19:00:00 7.9 0 Calma 7 Oeste 0 1005.2 0.7 85
2019-12-06 18:00:00 10.2 3 Sur 5 Oeste 0 1004.5 -0.7 76
2019-12-06 17:00:00 11.9 3 Oeste 6 Oeste 0 1004.5 -1.5 69
2019-12-06 16:00:00 11 3 Sur 7 Sudoeste 0 1004.5 -2.3 75
2019-12-06 15:00:00 8.4 3 Nordeste 5 Nordeste 0 1005.2 -2.2 85
2019-12-06 14:00:00 7.1 3 Sur 8 Sudeste 0 1006 -1.7 89
2019-12-06 13:00:00 5.8 0 Calma 6 Sur 0 1006.8 -0.1 92
2019-12-06 12:00:00 5.4 4 Sur 8 Sudeste 0 1007.4 1 95
2019-12-06 11:00:00 4.8 3 Sur 5 Sur 0 1007.7 1.4 97
2019-12-06 10:00:00 4.2 3 Oeste 9 Sudeste 0 1006.9 1.3 96
2019-12-06 09:00:00 3.8 5 Sudeste 15 Sudeste 0 1006.4 0.9 97
2019-12-06 08:00:00 4.4 4 Sudeste 6 Sudeste 0 1006.3 0.5 98
2019-12-06 07:00:00 4.4 3 Sudeste 7 Sudeste 0 1005.6 -0.3 98
2019-12-06 06:00:00 4.4 4 Sudeste 8 Sudeste 0 1005.5 0.1 98
2019-12-06 05:00:00 4.2 3 Sudeste 5 Sudeste 0 1005.8 0.1 97
2019-12-06 04:00:00 3.5 2 Sudoeste 5 Oeste 0 1005.9 0.1 97
2019-12-06 03:00:00 2.6 0 Calma 3 Oeste 0 1005.4 -0.1 96
2019-12-06 02:00:00 2.3 3 Oeste 4 Oeste 0 1005.7 0.4 95
2019-12-06 01:00:00 2.8 0 Calma 4 Oeste 0 1005.8 0.9 94
2019-12-06 00:00:00 3.6 0 Calma 5 Oeste 0 1005.5 0.8 94
2019-12-05 23:00:00 4.2 3 Sudoeste 5 Oeste 0 1005.3 1.5 92
2019-12-05 22:00:00 5 2 Sur 5 Sudoeste 0 1004.9 1.4 91
2019-12-05 21:00:00 6.2 3 Oeste 8 Oeste 0 1004.7 1.9 89
2019-12-05 20:00:00 7.7 3 Nordeste 5 Este 0 1003.8 1.5 89
2019-12-05 19:00:00 9.3 0 Calma 5 Este 0 1003.5 1.3 81
2019-12-05 18:00:00 12.2 3 Sudoeste 6 Oeste 0 1002.8 0.1 71
2019-12-05 17:00:00 14.3 3 Nordeste 10 Noroeste 0 1002.3 -1.1 61
2019-12-05 16:00:00 14.8 2 Sudoeste 6 Sur 0 1002.2 -1.6 60
2019-12-05 15:00:00 12.6 3 Sudoeste 8 Sudoeste 0 1002.7 -1.9 63
2019-12-05 14:00:00 11.1 3 Sudoeste 7 Sur 0 1003.4 -0.9 64
2019-12-05 13:00:00 8.3 4 Sur 6 Sudoeste 0 1003.8 -0.1 72
2019-12-05 12:00:00 5.8 4 Sur 6 Sur 0 1004.6 1.6 80
2019-12-05 11:00:00 2.7 3 Sur 5 Sudeste 0 1004.3 1.6 90
2019-12-05 10:00:00 0.1 4 Sudoeste 7 Sur 0 1003.9 1.5 97
2019-12-05 09:00:00 -0.9 3 Sudeste 5 Oeste 0 1003 1 96
2019-12-05 08:00:00 -0.8 0 Calma 5 Oeste 0 1002.7 0.8 95
2019-12-05 07:00:00 -0.3 0 Calma 6 Sudeste 0 1002.4 1.3 96
2019-12-05 06:00:00 -0.3 3 Oeste 5 Oeste 0 1002 1.1 95
2019-12-05 05:00:00 0 0 Calma 5 Sudeste 0 1001.9 1.2 95
2019-12-05 04:00:00 0.3 0 Calma 5 Sudeste 0 1001.1 0.5 95
2019-12-05 03:00:00 0.6 0 Calma 6 Oeste 0 1000.9 0.4 95
2019-12-05 02:00:00 1.1 2 Este 4 Nordeste 0 1000.7 0.6 95
2019-12-05 01:00:00 1.6 0 Calma 3 Sudoeste 0 1000.6 1.3 94
2019-12-05 00:00:00 2 0 Calma 5 Oeste 0 1000.5 1.9 93
2019-12-04 23:00:00 2.6 0 Calma 6 Oeste 0 1000.1 2.4 92
2019-12-04 22:00:00 3.4 0 Calma 4 Oeste 0 999.3 2.4 92
2019-12-04 21:00:00 4 2 Sur 5 Sudoeste 0 998.6 2.1 89
2019-12-04 20:00:00 5.1 3 Sudoeste 9 Sudoeste 0 997.7 1.9 86
2019-12-04 19:00:00 6.9 4 Oeste 9 Este 0 996.9 1.2 82
2019-12-04 18:00:00 9.8 0 Calma 8 Oeste 0 996.5 0.8 68
2019-12-04 17:00:00 11.7 3 Norte 8 Norte 0 995.8 -0.8 58
2019-12-04 16:00:00 11.2 4 Sur 8 Oeste 0 995.7 -1.4 60
2019-12-04 15:00:00 9.3 4 Sur 7 Sur 0 995.7 -2.1 62
2019-12-04 14:00:00 7.2 4 Sur 8 Sudoeste 0 996.6 -1.3 70
2019-12-04 13:00:00 4.8 5 Sur 9 Nordeste 0 997.1 -0.4 82
2019-12-04 12:00:00 2.4 3 Este 10 Sudeste 0 997.8 1.1 93
2019-12-04 11:00:00 1.2 4 Sudeste 8 Sudeste 0 997.9 1.6 98
2019-12-04 10:00:00 0.7 5 Sudeste 8 Sur 0 997.5 1.3 98
2019-12-04 09:00:00 0.4 5 Sudeste 8 Sudeste 0 996.7 0.6 98
2019-12-04 08:00:00 -0.1 3 Sudeste 7 Sudeste 0 996.3 -0.2 98
2019-12-04 07:00:00 -0.1 4 Sudeste 9 Sudeste 0 996.2 -0.7 98
2019-12-04 06:00:00 0.4 4 Sudeste 9 Sudeste 0 996.1 -1 97
2019-12-04 05:00:00 0.5 4 Sudeste 7 Sudeste 0 996.5 -0.9 97
2019-12-04 04:00:00 0.6 3 Sudoeste 6 Sudeste 0 996.9 -0.6 97
2019-12-04 03:00:00 0.3 3 Sudeste 5 Sur 0 997.1 -0.5 96
2019-12-04 02:00:00 -0.6 2 Sudeste 5 Oeste 0 997.4 -0.2 94
2019-12-04 01:00:00 -0.2 3 Oeste 5 Oeste 0 997.5 0.1 93
2019-12-04 00:00:00 0.3 2 Oeste 4 Oeste 0 997.6 0.4 91
2019-12-03 23:00:00 1.1 0 Calma 6 Oeste 0 997.6 0.6 90
2019-12-03 22:00:00 2 0 Calma 5 Oeste 0 997.4 0.5 88
2019-12-03 21:00:00 3.3 0 Calma 5 Sudeste 0 997.2 0.3 84
2019-12-03 20:00:00 4.6 2 Oeste 5 Sudoeste 0 997 0.2 81
2019-12-03 19:00:00 6.9 2 Este 7 Sudeste 0 996.9 -0.3 74
2019-12-03 18:00:00 9.7 2 Oeste 10 Norte 0 996.9 -0.8 59
2019-12-03 17:00:00 11.4 6 Norte 13 Noroeste 0 996.8 -2.2 52
2019-12-03 16:00:00 11.3 6 Norte 12 Norte 0 997.2 -3.2 49
2019-12-03 15:00:00 10.5 7 Norte 15 Norte 0 997.7 -4 53
2019-12-03 14:00:00 9.7 5 Norte 13 Norte 0 999 -3.4 60
2019-12-03 13:00:00 6.4 4 Sur 8 Sudeste 0 1000.4 -2 82
2019-12-03 12:00:00 2.6 4 Sur 7 Sur 0 1001.7 -1.1 97
2019-12-03 11:00:00 1.3 4 Sudeste 7 Sudeste 0 1002.4 -0.3 98
2019-12-03 10:00:00 0.7 4 Sudeste 7 Sudeste 0 1002.4 -0.1 97
2019-12-03 09:00:00 -0.1 3 Sudeste 4 Sudeste 0 1002.8 0.3 96
2019-12-03 08:00:00 -0.6 2 Sur 3 Oeste 0 1002.7 0 94
2019-12-03 07:00:00 -0.3 3 Sudoeste 5 Sudeste 0 1002.5 -0.6 93
2019-12-03 06:00:00 0.3 2 Sur 5 Sur 0 1002.5 -0.7 93
2019-12-03 05:00:00 0.8 3 Sudeste 6 Sur 0 1002.7 -0.8 92
2019-12-03 04:00:00 1.5 4 Sudeste 6 Sudeste 0 1003.1 -0.6 92
2019-12-03 03:00:00 2.3 3 Sudeste 7 Sur 0 1003.2 -0.5 90
2019-12-03 02:00:00 3 3 Sudoeste 9 Sur 0 1003.5 0 90
2019-12-03 01:00:00 4.3 2 Oeste 5 Nordeste 0 1003.7 0.5 86
2019-12-03 00:00:00 6.1 4 Oeste 9 Oeste 0 1003.7 0.8 81
2019-12-02 23:00:00 7.3 4 Norte 12 Nordeste 0 1003.5 0.9 77
2019-12-02 22:00:00 8.4 3 Sudoeste 14 Norte 0 1003.2 1.1 72
2019-12-02 21:00:00 9.5 4 Noroeste 15 Norte 0 1002.9 1.5 68
2019-12-02 20:00:00 9.9 5 Norte 14 Noroeste 0 1002.6 1.3 66
2019-12-02 19:00:00 10.5 5 Sudoeste 17 Nordeste 0 1002.1 1.4 64
2019-12-02 18:00:00 12 7 Nordeste 25 Nordeste 0 1001.4 0.3 57
2019-12-02 17:00:00 13.5 8 Norte 23 Norte 0 1001.3 -0.2 53
2019-12-02 16:00:00 14 9 Norte 22 Noroeste 0 1000.7 -1.6 54
2019-12-02 15:00:00 14.4 5 Oeste 22 Norte 0 1001.1 -1.7 56
2019-12-02 14:00:00 14.3 7 Nordeste 24 Nordeste 0 1001.5 -1.5 57
2019-12-02 13:00:00 14 8 Norte 22 Este 0 1002.3 -0.6 60
2019-12-02 12:00:00 12.8 4 Oeste 10 Norte 0 1002.8 0.3 67
2019-12-02 11:00:00 9.3 3 Sudoeste 8 Oeste 0 1003 1 83
2019-12-02 10:00:00 5.4 0 Calma 4 Sudoeste 0 1002.9 1.6 95
2019-12-02 09:00:00 4.5 2 Sur 5 Este 0 1002.5 1.8 92
2019-12-02 08:00:00 5.4 2 Este 6 Nordeste 0 1002 1.6 90
2019-12-02 07:00:00 6.2 3 Este 6 Este 0 1001.3 0.9 88
2019-12-02 06:00:00 6.6 2 Sudoeste 9 Este 0 1000.7 -0.1 86
2019-12-02 05:00:00 7.7 5 Este 10 Sudoeste 0 1000.4 -0.5 82
2019-12-02 04:00:00 8.6 5 Nordeste 12 Norte 0 1000.4 -0.3 80
2019-12-02 03:00:00 8.8 3 Noroeste 9 Noroeste 0 1000.8 0.4 81
2019-12-02 02:00:00 9 4 Oeste 9 Noroeste 0 1000.9 0.4 77
2019-12-02 01:00:00 8.8 3 Sudoeste 12 Noroeste 0 1000.7 0.5 77
2019-12-02 00:00:00 9 0 Calma 14 Noroeste 0 1000.4 0.5 74
2019-12-01 23:00:00 9.3 3 Norte 17 Noroeste 0 1000.5 1.3 72
2019-12-01 22:00:00 10.1 0 Calma 25 Norte 0 1000.2 2.2 67
2019-12-01 21:00:00 10.9 8 Nordeste 22 Norte 0 999.9 3.1 67
2019-12-01 20:00:00 11.3 7 Nordeste 20 Este 0 999.2 3.2 71
2019-12-01 19:00:00 11.9 3 Nordeste 20 Nordeste 0 998 2.8 74
2019-12-01 18:00:00 12.8 3 Sudoeste 16 Oeste 0 996.8 1.9 67
2019-12-01 17:00:00 14.1 5 Norte 26 Norte 0 996 1.3 62
2019-12-01 16:00:00 14.2 9 Norte 21 Noroeste 0 995.2 0.4 62
2019-12-01 15:00:00 13.7 5 Norte 27 Norte 0 994.9 0.3 65
2019-12-01 14:00:00 14.1 8 Nordeste 19 Este 0 994.7 0.7 64
2019-12-01 13:00:00 13.4 7 Nordeste 25 Norte 0 994.8 1.9 69
2019-12-01 12:00:00 12.5 4 Nordeste 12 Oeste 0 994.6 3.4 79
2019-12-01 11:00:00 9.8 3 Sudoeste 11 Norte 0 994 3.9 87
2019-12-01 10:00:00 9.4 6 Norte 12 Norte 0 992.9 4 88
2019-12-01 09:00:00 8.2 3 Este 5 Este 0 991.2 2.6 95
2019-12-01 08:00:00 8.8 3 Nordeste 6 Norte 0.2 990.1 1.6 94
2019-12-01 07:00:00 9 0 Calma 10 Nordeste 3.2 988.9 -0.1 92
2019-12-01 06:00:00 8.9 3 Nordeste 11 Sudoeste 5 988.6 -1 92
2019-12-01 05:00:00 9.3 3 Oeste 16 Este 1.8 988.5 -2.1 88
2019-12-01 04:00:00 9.4 6 Sur 15 Sudoeste 0 989 -2.5 88
2019-12-01 03:00:00 9.7 8 Sudeste 23 Sur 2.6 989.6 -2.9 87
2019-12-01 02:00:00 9.9 11 Sudeste 28 Sudeste 2.8 990.6 -3 87
2019-12-01 01:00:00 10.1 4 Sudeste 13 Sudoeste 1.2 991.5 -3.1 87
2019-12-01 00:00:00 10.1 4 Sudoeste 15 Sudeste 0 992.5 -2.8 86
2019-11-30 23:00:00 10 4 Sur 11 Sudeste 0.4 993.6 -2.2 88
2019-11-30 22:00:00 10.5 6 Sudeste 19 Sudoeste 0.4 994.6 -1.4 84
2019-11-30 21:00:00 10.6 4 Oeste 14 Sudeste 0 995.3 -1.2 86
2019-11-30 20:00:00 11 4 Sur 10 Sudeste 0.2 995.8 -0.7 83
2019-11-30 19:00:00 11.4 6 Sur 13 Sudeste 0.2 996 -0.7 83
2019-11-30 18:00:00 12.5 6 Sur 27 Sudoeste 0.8 996.5 -0.3 82
2019-11-30 17:00:00 14.5 10 Sudoeste 23 Sur 0 996.5 -0.7 64
2019-11-30 16:00:00 15.2 10 Sur 21 Sudoeste 0 996.7 -1.2 64
2019-11-30 15:00:00 16 9 Sudoeste 17 Sudoeste 0 996.8 -1.7 59
2019-11-30 14:00:00 14.8 9 Oeste 23 Sur 0 997.2 -1.1 61
2019-11-30 13:00:00 14 8 Sudoeste 22 Sudoeste 0 997.9 0.2 72
2019-11-30 12:00:00 13.8 7 Sur 17 Sur 0 998.5 1.1 76
2019-11-30 11:00:00 13.2 7 Sudoeste 17 Sur 0.4 998.3 1.6 78
2019-11-30 10:00:00 13 5 Sudeste 10 Sur 0 997.7 1.6 83
2019-11-30 09:00:00 12.9 3 Sudeste 11 Oeste 0 997.4 1.4 87
2019-11-30 08:00:00 14.3 6 Oeste 21 Oeste 0.8 996.7 0.2 86
2019-11-30 07:00:00 15.3 5 Oeste 24 Sudoeste 0.6 996.1 -0.7 89
2019-11-30 06:00:00 15.4 10 Sudoeste 27 Oeste 0.2 996 -1.3 87
2019-11-30 05:00:00 15.1 8 Sudeste 19 Sudoeste 4.4 996.5 -1.2 93
2019-11-30 04:00:00 15.2 6 Sudeste 19 Sudeste 0.2 996.8 -1.3 92
2019-11-30 03:00:00 14.7 5 Sudeste 17 Sur 0.4 997.3 -1.3 95
2019-11-30 02:00:00 13.4 2 Este 8 Este 2.2 997.7 -1.1 97
2019-11-30 01:00:00 13.5 0 Calma 6 Oeste 0.2 998.1 -1.4 96
2019-11-30 00:00:00 13.6 3 Sudeste 4 Este 0 998.6 -1.2 96
2019-11-29 23:00:00 13.6 2 Sudeste 4 Oeste 0 998.8 -1.3 96
2019-11-29 22:00:00 13.7 2 Sudoeste 8 Sudoeste 0.2 999.5 -0.4 95
2019-11-29 21:00:00 13.9 3 Noroeste 5 Oeste 0.2 999.8 0.1 94
2019-11-29 20:00:00 14.2 0 Calma 8 Oeste 0.4 1000.1 0.3 91
2019-11-29 19:00:00 14.6 0 Calma 4 Este 0 999.9 0.2 89
2019-11-29 18:00:00 15.4 0 Calma 5 Sudeste 0 999.7 -0.4 85
2019-11-29 17:00:00 16.3 0 Calma 6 Oeste 0 999.8 -1.2 80
2019-11-29 16:00:00 17 5 Sudoeste 8 Oeste 0 999.7 -1.8 75
2019-11-29 15:00:00 16.1 5 Nordeste 10 Nordeste 0 1000.1 -2.1 78
2019-11-29 14:00:00 14.7 3 Nordeste 8 Oeste 0 1001 -1.2 82
2019-11-29 13:00:00 14 3 Noroeste 7 Oeste 0 1001.5 0.3 88
2019-11-29 12:00:00 12.8 3 Sudoeste 6 Sudoeste 0 1002.2 1.1 93
2019-11-29 11:00:00 11.4 3 Sudoeste 6 Sudoeste 0 1002.2 1.6 97
2019-11-29 10:00:00 10.4 0 Calma 6 Nordeste 0 1001.2 1 97
2019-11-29 09:00:00 10.3 3 Este 5 Sudeste 0 1001.1 1.3 97
2019-11-29 08:00:00 10.4 2 Sudoeste 5 Oeste 0 1000.6 1.6 97
2019-11-29 07:00:00 10.3 2 Sur 10 Sur 0 1000.2 1.4 98
2019-11-29 06:00:00 10.6 4 Nordeste 8 Nordeste 0 999.8 1.4 98
2019-11-29 05:00:00 10 2 Sur 6 Sudoeste 0 999 1 97
2019-11-29 04:00:00 10 2 Sudoeste 4 Sudoeste 0 998.8 1.1 96
2019-11-29 03:00:00 10.2 0 Calma 3 Oeste 0 998.4 1.2 96
2019-11-29 02:00:00 10.9 0 Calma 4 Oeste 0 998 1.4 95
2019-11-29 01:00:00 11.8 2 Oeste 5 Oeste 0 997.7 1.7 94
2019-11-29 00:00:00 12.8 3 Sudeste 6 Este 0 997.2 2.3 92
2019-11-28 23:00:00 13.9 3 Este 8 Oeste 0 996.6 2.8 90
2019-11-28 22:00:00 14.9 3 Este 7 Oeste 0 996 2.7 88
2019-11-28 21:00:00 15.3 5 Sudeste 10 Sur 0 994.9 2.3 85
2019-11-28 20:00:00 15.6 3 Sudeste 19 Sur 0 993.8 1.5 85
2019-11-28 19:00:00 15.8 10 Sudoeste 32 Sudoeste 0 993.3 1.4 87
2019-11-28 18:00:00 15.5 6 Sudeste 27 Sudoeste 0 992.6 0.2 86
2019-11-28 17:00:00 15.1 8 Sudoeste 30 Sur 0.8 992.3 -1.3 88
2019-11-28 16:00:00 14.5 4 Este 8 Sudeste 0.4 991.9 -2 89
2019-11-28 15:00:00 14.6 2 Sudeste 12 Sudeste 0 992.4 -2.3 85
2019-11-28 14:00:00 15 0 Calma 14 Sudoeste 0.6 993.6 -1.4 85
2019-11-28 13:00:00 15.7 5 Sudoeste 18 Sudoeste 0 993.9 -0.5 79
2019-11-28 12:00:00 15.4 8 Sudoeste 19 Sudoeste 0 994.7 1 82
2019-11-28 11:00:00 14.6 7 Sudoeste 21 Noroeste 0 995 2 86
2019-11-28 10:00:00 14.2 6 Sur 17 Sudoeste 2.2 994.4 1.6 93
2019-11-28 09:00:00 13.6 3 Sur 7 Sudeste 0 993.7 1.2 89
2019-11-28 08:00:00 14.1 3 Sur 13 Sudoeste 0 993 0.5 87
2019-11-28 07:00:00 13.5 4 Este 10 Nordeste 0 992.8 0 89
2019-11-28 06:00:00 13.8 2 Sudeste 16 Sudoeste 0 992.5 0 88
2019-11-28 05:00:00 14.6 8 Sudoeste 19 Sudoeste 0 992.5 -0.6 87
2019-11-28 04:00:00 13.2 8 Sur 27 Sudoeste 0 992.8 -0.7 89
2019-11-28 03:00:00 12.3 2 Sudoeste 7 Sur 0 992.5 -1.2 91
2019-11-28 02:00:00 12.5 5 Sudeste 9 Sur 0 993.1 -0.6 89
2019-11-28 01:00:00 13 4 Sur 15 Sudeste 0 993.5 0.1 85
2019-11-28 00:00:00 13.1 6 Sudeste 19 Sudoeste 0 993.7 0.3 84
2019-11-27 23:00:00 13.2 7 Sur 16 Sudeste 0 993.7 0.6 85
2019-11-27 22:00:00 12.5 4 Sur 14 Sudeste 0 993.4 0.3 88
2019-11-27 21:00:00 12.2 6 Sudeste 15 Sudoeste 0.2 993.4 0.6 89
2019-11-27 20:00:00 12.7 6 Sur 19 Sudeste 0 993.1 1 83
2019-11-27 19:00:00 12.7 8 Sur 23 Sudoeste 0 993.1 1.3 84
2019-11-27 18:00:00 13 9 Sur 21 Oeste 0 992.8 0.5 83
2019-11-27 17:00:00 13 6 Sur 23 Sudoeste 0 992.1 -0.3 84
2019-11-27 16:00:00 13.4 10 Sudoeste 26 Sudoeste 0 991.8 -0.7 80
2019-11-27 15:00:00 13.5 9 Sudoeste 27 Sur 0 992.3 -0.7 82
2019-11-27 14:00:00 13.2 12 Sur 24 Sur 0.4 992.4 -0.3 87
2019-11-27 06:00:00 12.3 6 Sudeste 27 Sudoeste 0 990.7 0.5 82
2019-11-27 05:00:00 12.7 7 Sur 23 Sudoeste 0 990.6 0.4 83
2019-11-27 04:00:00 12.6 7 Sur 32 Sur 0 990.8 0.9 82
2019-11-27 03:00:00 12.8 11 Sur 26 Sudoeste 0 990.2 0.8 78
2019-11-27 02:00:00 12.4 12 Sur 32 Sudoeste 0 990.2 1.2 81
2019-11-27 01:00:00 12.4 10 Sudoeste 22 Sur 0 989.9 1 79
2019-11-27 00:00:00 12.1 8 Sur 28 Sur 0 989.4 1.2 80
2019-11-26 23:00:00 12.3 10 Sur 21 Sur 0 989 1.7 79
2019-11-26 22:00:00 12.2 6 Sur 23 Sur 0 988.9 1.8 81
2019-11-26 21:00:00 12.5 9 Sur 48 Sudoeste 0 988.2 2.6 81
2019-11-26 20:00:00 12.8 13 Sudoeste 27 Sur 0 987.3 1.9 79
2019-11-26 19:00:00 13.3 12 Sudoeste 26 Oeste 1 987.1 1.7 81
2019-11-26 18:00:00 13.7 9 Sudoeste 41 Sudoeste 0.6 985.6 1.4 81
2019-11-26 17:00:00 14.6 17 Sudoeste 37 Sudoeste 0.6 985.4 -0.3 81
2019-11-26 16:00:00 15.1 16 Sudoeste 43 Sudoeste 2.8 985.4 -2 84
2019-11-26 15:00:00 19.4 11 Sudoeste 34 Sudoeste 0 984.2 -4.4 63
2019-11-26 14:00:00 18.3 15 Sur 37 Sur 0 985.7 -3.7 59
2019-11-26 13:00:00 18 15 Sur 32 Sur 0 987.4 -2.2 57
2019-11-26 12:00:00 19 12 Sur 29 Sur 0 988.6 -1.6 57
2019-11-26 11:00:00 17.2 9 Sur 20 Sur 0 989.4 -0.6 66
2019-11-26 10:00:00 15.4 7 Sudeste 20 Sur 0 989.6 -0.2 77
2019-11-26 09:00:00 15.1 10 Sudoeste 22 Oeste 0 990.2 0.5 81
2019-11-26 08:00:00 15.3 8 Sudoeste 33 Oeste 0 990 0.4 82
2019-11-26 07:00:00 15.6 9 Sudoeste 26 Oeste 0.2 989.8 -0.4 91
2019-11-26 06:00:00 14.6 7 Sudeste 15 Sudeste 0.6 989.7 -1 95
2019-11-26 05:00:00 14.3 3 Oeste 8 Oeste 0.6 989.6 -1.9 93
2019-11-26 04:00:00 14.9 3 Sudoeste 12 Sudeste 0 990.2 -2.8 84
2019-11-26 03:00:00 15.7 7 Sudeste 21 Sudeste 0 990.7 -2.8 77
2019-11-26 02:00:00 15.5 8 Sudeste 23 Sur 0 991.5 -2.3 75
2019-11-26 01:00:00 15.1 8 Sudeste 20 Sudeste 0 993 -1.8 75
2019-11-26 00:00:00 14.7 6 Sudeste 18 Sudeste 0 993.5 -1.7 77
2019-11-25 23:00:00 12.8 2 Sudeste 4 Sudeste 0 993.8 -1.6 89
2019-11-25 22:00:00 12.9 3 Sudoeste 8 Norte 0 994.8 -0.6 87
2019-11-25 21:00:00 14 2 Este 10 Sudoeste 0 995.2 -0.3 81
2019-11-25 20:00:00 14.7 6 Sudoeste 10 Sur 0 995.4 -0.1 77
2019-11-25 19:00:00 15 3 Sudeste 6 Sudeste 0 995.4 0.3 75
2019-11-25 18:00:00 15.7 3 Sur 15 Sudoeste 0 995.5 0.2 72
2019-11-25 17:00:00 16.4 7 Sudoeste 24 Sudoeste 0 995.5 -0.2 69
2019-11-25 16:00:00 16.6 6 Sudoeste 19 Oeste 0 995.1 -0.6 71
2019-11-25 15:00:00 16.7 8 Sudoeste 27 Oeste 0 995.3 -0.8 72
2019-11-25 14:00:00 17 12 Sudoeste 21 Sudoeste 0 995.7 0 69
2019-11-25 13:00:00 15.8 7 Sudoeste 19 Sudoeste 0 995.7 0.7 78
2019-11-25 12:00:00 15.4 8 Oeste 18 Oeste 0 996.1 1.9 76
2019-11-25 11:00:00 14.3 6 Sur 15 Sur 0 995.7 1.8 85
2019-11-25 10:00:00 13.6 5 Sur 16 Sudoeste 0 995 1.7 86
2019-11-25 09:00:00 13.5 8 Sudeste 16 Sudeste 0 994.2 1.1 83
2019-11-25 08:00:00 13.3 8 Sudeste 17 Sudeste 0 993.9 1.2 83
2019-11-25 07:00:00 13.6 6 Sur 14 Sur 0 993.3 0.9 84
2019-11-25 06:00:00 13.8 5 Sur 22 Sur 0 993.1 1.2 84
2019-11-25 05:00:00 13.8 7 Sudeste 20 Sur 0 992.7 0.6 89
2019-11-25 04:00:00 13.6 5 Sudeste 15 Sur 0.2 992.4 0.2 91
2019-11-25 03:00:00 14.3 6 Sudeste 16 Sur 0 991.9 0.5 85
2019-11-25 02:00:00 14.8 9 Sudeste 26 Oeste 0 992.1 1.3 82
2019-11-25 01:00:00 14.9 9 Sudoeste 24 Sudoeste 0 992.2 1.4 83
2019-11-25 00:00:00 15.2 8 Sudoeste 23 Sur 0.2 991.4 0.9 87
2019-11-24 23:00:00 15.3 10 Sur 21 Sur 0 990.8 0.3 86
2019-11-24 22:00:00 15 9 Sur 18 Sur 0 990.8 0.6 90
2019-11-24 21:00:00 14.6 6 Sur 17 Este 0 990.5 0.2 92
2019-11-24 20:00:00 12.4 3 Sudoeste 8 Oeste 0.6 990.5 -0.6 94
2019-11-24 19:00:00 13.1 3 Oeste 15 Sudeste 0.2 990.2 -1.9 89
2019-11-24 18:00:00 13 12 Sudeste 24 Sudeste 0.4 990.3 -2.6 86
2019-11-24 17:00:00 13.1 7 Sudeste 17 Sudeste 0 991.1 -2.6 82
2019-11-24 16:00:00 11.7 0 Calma 6 Oeste 0 992.1 -2.3 90
2019-11-24 15:00:00 11.9 3 Norte 8 Norte 0 992.9 -2.8 85
2019-11-24 14:00:00 12.8 4 Sudeste 18 Este 0 993.7 -2.7 77
2019-11-24 13:00:00 12.1 6 Sudeste 18 Sur 0 994.4 -2.1 79
2019-11-24 12:00:00 9.3 3 Oeste 6 Sudoeste 0 995.7 -0.9 96
2019-11-24 11:00:00 8.1 0 Calma 5 Oeste 0 996.4 0.3 97
2019-11-24 10:00:00 6.7 2 Sur 6 Oeste 0 996.5 0.4 98
2019-11-24 09:00:00 6.1 3 Oeste 6 Oeste 0 996.6 0.3 98
2019-11-24 08:00:00 5.7 2 Oeste 4 Sudoeste 0 996.1 -0.7 98
2019-11-24 07:00:00 5.4 0 Calma 4 Oeste 0 996.1 -0.7 98
2019-11-24 06:00:00 5.1 0 Calma 5 Oeste 0 996.3 0.1 98
2019-11-24 05:00:00 5 2 Sur 6 Oeste 0 996.8 0.4 97
2019-11-24 04:00:00 4.8 3 Oeste 5 Oeste 0 996.8 0.4 97
2019-11-24 03:00:00 4.5 0 Calma 5 Oeste 0 996.2 0.3 97
2019-11-24 02:00:00 4.7 0 Calma 5 Oeste 0 996.4 0.7 96
2019-11-24 01:00:00 5.2 2 Este 5 Oeste 0 996.4 0.9 96
2019-11-24 00:00:00 5.8 0 Calma 8 Oeste 0 995.9 0.8 95
2019-11-23 23:00:00 6.7 2 Este 6 Oeste 0 995.7 1 94
2019-11-23 22:00:00 7.5 2 Noroeste 6 Este 0 995.5 1.7 93
2019-11-23 21:00:00 8.6 2 Este 6 Este 0 995.1 2.3 93
2019-11-23 20:00:00 9.8 3 Sudeste 6 Oeste 0.2 994.7 3 90
2019-11-23 19:00:00 10.5 2 Sur 6 Sudeste 0 993.8 2.7 86
2019-11-23 18:00:00 11.4 0 Calma 13 Oeste 0 992.8 1.9 80
2019-11-23 17:00:00 12.5 7 Oeste 15 Oeste 0 991.7 1.3 74
2019-11-23 16:00:00 13.3 4 Oeste 17 Oeste 0 991.1 1 74
2019-11-23 15:00:00 12.5 4 Oeste 19 Oeste 0 990.9 1 73
2019-11-23 14:00:00 12.4 4 Nordeste 23 Oeste 1 990.4 1.3 76
2019-11-23 13:00:00 12.1 7 Oeste 18 Oeste 0.2 990.1 2 75
2019-11-23 12:00:00 11.2 8 Oeste 21 Oeste 0.4 989.9 3.1 82
2019-11-23 11:00:00 9.8 3 Sudeste 5 Sudeste 0 989.1 3.5 90
2019-11-23 10:00:00 8.5 2 Oeste 6 Este 0 988.1 3.7 94
2019-11-23 09:00:00 7.7 3 Sudeste 7 Nordeste 0 986.8 3.6 96
2019-11-23 08:00:00 7.5 4 Este 6 Este 0 985.6 3.1 96
2019-11-23 07:00:00 7.7 0 Calma 6 Este 0.2 984.4 2.6 94
2019-11-23 06:00:00 8 3 Sudoeste 6 Nordeste 0.2 983.2 2.6 93
2019-11-23 05:00:00 8.1 4 Sudeste 8 Sudeste 0.4 982.5 3.1 93
2019-11-23 04:00:00 8.3 2 Sudoeste 9 Sudoeste 0 981.8 3.8 89
2019-11-23 03:00:00 8.7 3 Este 9 Oeste 0 980.6 3.8 90
2019-11-23 02:00:00 9.2 0 Calma 13 Noroeste 0.8 979.4 3.8 87
2019-11-23 01:00:00 9.3 6 Oeste 21 Oeste 0.8 978 3.9 85
2019-11-23 00:00:00 9.1 8 Sudoeste 28 Sudoeste 0.6 976.8 4.5 85
2019-11-22 23:00:00 9.7 13 Oeste 33 Oeste 0.8 975.6 4.5 83
2019-11-22 22:00:00 10.4 9 Sudoeste 28 Oeste 0.8 974.1 4 86
2019-11-22 21:00:00 11 8 Sudoeste 25 Sudoeste 0.6 972.3 3.1 83
2019-11-22 20:00:00 11.5 9 Sudoeste 25 Oeste 0 971.1 2.7 84
2019-11-22 19:00:00 11.7 8 Sudoeste 27 Oeste 0 970.1 1.1 80
2019-11-22 18:00:00 12.1 13 Oeste 24 Oeste 4 969.2 0.3 85
2019-11-22 17:00:00 12.2 10 Sudoeste 29 Sur 1.2 968.4 -1.3 88
2019-11-22 16:00:00 11.9 10 Sur 22 Sur 2.2 969 -0.7 87
2019-11-22 15:00:00 12.7 9 Sur 25 Sudeste 0.8 968.9 -1.6 85
2019-11-22 14:00:00 14.7 12 Sur 31 Sur 0 969.7 1 74
2019-11-22 13:00:00 15.3 14 Sur 32 Sudoeste 0 969.7 0.1 76
2019-11-22 12:00:00 13.5 9 Oeste 38 Oeste 2.2 970.5 2 87
2019-11-22 11:00:00 15.4 9 Sur 26 Sur 0 968.7 -1.6 85
2019-11-22 10:00:00 13.4 12 Sur 30 Sur 2.2 969.6 -2.8 91
2019-11-22 09:00:00 11.8 9 Sudeste 24 Sudeste 0.6 968.5 -5.9 86
2019-11-22 08:00:00 11.3 8 Sudeste 27 Este 0.4 970.3 -5.3 85
2019-11-22 07:00:00 11 13 Sudeste 34 Sur 0 972.4 -5.4 83
2019-11-22 06:00:00 10.1 5 Sur 22 Sudeste 1.6 974.4 -5.2 88
2019-11-22 05:00:00 10.5 7 Sudeste 19 Sudeste 0.2 975.6 -5.7 82
2019-11-22 04:00:00 10.3 4 Sudeste 17 Sudeste 0.4 977.8 -4.8 83
2019-11-22 03:00:00 10.7 6 Sudeste 17 Sudeste 0.2 979.6 -4.1 78
2019-11-22 02:00:00 10.7 8 Sudeste 17 Este 0 981.3 -3.6 78
2019-11-22 01:00:00 10.2 0 Calma 14 Sur 0 982.6 -3 77
2019-11-22 00:00:00 8.3 0 Calma 6 Sudeste 0 983.7 -2.2 89
2019-11-21 23:00:00 8.5 0 Calma 4 Sudeste 0 984.9 -1.6 89
2019-11-21 22:00:00 8.7 0 Calma 4 Oeste 0 985.6 -1.1 88
2019-11-21 21:00:00 9.4 2 Oeste 4 Sudoeste 0 985.9 -0.8 83
2019-11-21 20:00:00 10 3 Sur 8 Sudeste 0 986.5 -0.2 80
2019-11-21 19:00:00 10.8 2 Sudeste 10 Sudoeste 0 986.7 0.1 78
2019-11-21 18:00:00 11.8 5 Sudeste 15 Oeste 0 986.7 -0.3 71
2019-11-21 17:00:00 13.7 2 Sudoeste 17 Sudoeste 0 986.7 -0.6 66
2019-11-21 16:00:00 15.6 6 Sudoeste 17 Oeste 0 986.6 -1.5 57
2019-11-21 15:00:00 14.4 7 Sudoeste 27 Sudoeste 0 987 -1.7 59
2019-11-21 14:00:00 13.5 10 Sudoeste 22 Sudoeste 0 987.3 -1.3 64
2019-11-21 13:00:00 11.3 5 Oeste 10 Oeste 0 988.1 -0.4 85
2019-11-21 12:00:00 8.4 2 Sudeste 9 Oeste 0 988.7 0.4 96
2019-11-21 11:00:00 6.6 4 Sur 7 Sudeste 0 988.6 0.7 99
2019-11-21 10:00:00 5.3 2 Sur 6 Sur 0 988.5 1.2 98
2019-11-21 09:00:00 5 2 Sudoeste 5 Oeste 0 988.3 1.2 98
2019-11-21 08:00:00 4.7 2 Oeste 4 Oeste 0 987.9 0.9 97
2019-11-21 07:00:00 5.1 2 Oeste 5 Oeste 0 987.3 0 95
2019-11-21 06:00:00 6.2 0 Calma 6 Oeste 0 987.1 0.1 96
2019-11-21 05:00:00 7.1 2 Noroeste 7 Oeste 0.8 987 0.2 96
2019-11-21 04:00:00 7.4 4 Oeste 9 Sudeste 0.8 987.3 0.4 96
2019-11-21 03:00:00 7.4 0 Calma 10 Este 0.8 987 0 96
2019-11-21 02:00:00 6.9 3 Sudeste 6 Este 0 986.8 -0.5 96
2019-11-21 01:00:00 6.8 2 Sur 4 Sudoeste 0.2 986.9 -0.3 95
2019-11-21 00:00:00 6.8 0 Calma 5 Oeste 0 987 -0.4 95
2019-11-20 23:00:00 7.1 2 Este 6 Oeste 0 987.3 0.2 94
2019-11-20 22:00:00 7.4 3 Sudeste 6 Norte 0 987.2 0.6 94
2019-11-20 21:00:00 7.3 3 Sur 6 Este 0 987.4 0.9 93
2019-11-20 20:00:00 7.8 2 Sudeste 5 Sudeste 0 987.1 0.3 93
2019-11-20 19:00:00 8.7 3 Este 7 Nordeste 0 986.6 -0.4 91
2019-11-20 18:00:00 9.8 0 Calma 4 Sudoeste 0.4 986.5 -0.7 88
2019-11-20 17:00:00 10.3 3 Nordeste 7 Sur 0 986.8 -0.5 79
2019-11-20 16:00:00 10.2 4 Sur 22 Sudoeste 0 987 -0.9 81
2019-11-20 15:00:00 10.9 5 Sur 14 Sur 0 987.2 -1.6 76
2019-11-20 14:00:00 10.9 4 Oeste 9 Oeste 0 987.3 -1.9 86
2019-11-20 13:00:00 10.1 2 Este 9 Oeste 0.2 987.9 -1.6 90
2019-11-20 12:00:00 8.6 3 Norte 7 Oeste 0 988.8 -0.5 95
2019-11-20 11:00:00 8.3 4 Oeste 7 Sudoeste 0 989.2 -0.1 96
2019-11-20 10:00:00 7.6 2 Sudoeste 6 Oeste 0 989.5 -0.1 96
2019-11-20 09:00:00 7.5 2 Oeste 3 Oeste 0 989.3 -0.4 96
2019-11-20 08:00:00 8 0 Calma 6 Sudeste 0 989.3 -1 96
2019-11-20 07:00:00 8.4 3 Sudeste 5 Sudeste 0 989.6 -1.3 96
2019-11-20 06:00:00 8.6 3 Oeste 5 Oeste 0 989.7 -1.8 96
2019-11-20 05:00:00 8.6 3 Sudeste 4 Sur 0 990.3 -1.7 96
2019-11-20 04:00:00 8.7 2 Sudoeste 4 Sudeste 0 990.9 -1.7 96
2019-11-20 03:00:00 8.7 0 Calma 4 Sudeste 0 991.5 -1.5 96
2019-11-20 02:00:00 8.8 2 Sur 5 Oeste 0 992 -1.6 95
2019-11-20 01:00:00 8.8 0 Calma 5 Este 0 992.6 -1.4 95
2019-11-20 00:00:00 8.7 3 Nordeste 6 Oeste 0 993 -1.1 95
2019-11-19 23:00:00 8.6 0 Calma 3 Oeste 0 993.6 -1 94
2019-11-19 22:00:00 8.7 0 Calma 9 Oeste 0.6 994 -0.4 91
2019-11-19 21:00:00 9 3 Oeste 12 Sur 1.2 994.1 -0.2 90
2019-11-19 20:00:00 9.5 3 Sur 8 Sudoeste 0.4 994.6 0.2 87
2019-11-19 19:00:00 9.9 4 Sudeste 18 Sur 1 994.4 -0.3 84
2019-11-19 18:00:00 11.2 6 Sudeste 13 Sudeste 0 994.3 -1.1 71
2019-11-19 17:00:00 11.9 6 Sudeste 18 Sudeste 0 994.4 -2 67
2019-11-19 16:00:00 11.7 5 Sur 14 Sudeste 0.2 994.7 -2.7 75
2019-11-19 15:00:00 10.4 4 Norte 12 Noroeste 0 995.4 -3 81
2019-11-19 14:00:00 9.7 3 Oeste 9 Noroeste 0 996.4 -2.6 85
2019-11-19 13:00:00 8.8 3 Oeste 9 Oeste 0 997.4 -1.9 84
2019-11-19 12:00:00 7.1 2 Nordeste 7 Este 0 998.4 -0.9 88
2019-11-19 11:00:00 5.8 3 Nordeste 8 Norte 0 999 -0.3 92
2019-11-19 10:00:00 5 3 Sudeste 6 Sudeste 0 999.3 -0.1 97
2019-11-19 09:00:00 4.6 3 Sur 5 Sudeste 0 999.3 -0.2 97
2019-11-19 08:00:00 4.4 2 Este 6 Sudeste 0 999.3 -0.6 97
2019-11-19 07:00:00 4.3 3 Sudeste 5 Sudeste 0 999.4 -1 97
2019-11-19 06:00:00 4.4 3 Sudeste 7 Sur 0 999.5 -0.9 96
2019-11-19 05:00:00 4.6 4 Sur 6 Sudeste 0 999.9 -0.8 96
2019-11-19 04:00:00 4.7 3 Sudoeste 5 Sur 0 1000.4 -0.7 95
2019-11-19 03:00:00 4.6 2 Sur 6 Sudeste 0 1000.4 -0.7 95
2019-11-19 02:00:00 4.1 3 Sur 4 Sudoeste 0 1000.7 -0.6 93
2019-11-19 01:00:00 4.1 2 Oeste 5 Sudoeste 0 1001.1 -0.1 92
2019-11-19 00:00:00 4.4 2 Sudoeste 6 Sur 0 1001.1 0.2 91
2019-11-18 23:00:00 5.3 0 Calma 6 Sur 0 1001.3 0.5 90
2019-11-18 22:00:00 6.5 0 Calma 4 Sudeste 0 1001.2 0.3 90
2019-11-18 21:00:00 8.1 3 Sudoeste 7 Oeste 0 1000.9 0.6 86
2019-11-18 20:00:00 9.9 2 Este 8 Sudoeste 0 1000.8 0.6 83
2019-11-18 19:00:00 11.2 3 Sudoeste 5 Oeste 0 1000.9 0.9 78
2019-11-18 18:00:00 12.2 2 Sur 8 Este 0 1000.3 0.2 69
2019-11-18 17:00:00 13.1 3 Nordeste 8 Este 0 1000.2 -0.6 62
2019-11-18 16:00:00 14.4 3 Noroeste 11 Noroeste 0 1000 -1.3 57
2019-11-18 15:00:00 14.6 4 Noroeste 13 Noroeste 0 1000.1 -1.9 59
2019-11-18 14:00:00 13 5 Oeste 11 Oeste 0 1000.8 -1.6 65
2019-11-18 13:00:00 11.8 6 Sudoeste 11 Sur 0 1001.3 -1.1 71
2019-11-18 12:00:00 9 4 Oeste 8 Oeste 0 1002 0.4 87
2019-11-18 11:00:00 7.2 4 Oeste 8 Sudeste 0 1002.4 1.8 94
2019-11-18 10:00:00 6.7 2 Sudoeste 5 Sudoeste 0 1002.4 2.3 96
2019-11-18 09:00:00 6.3 2 Sudoeste 5 Sudoeste 0 1001.6 1.6 97
2019-11-18 08:00:00 6.3 2 Sudeste 5 Sudeste 0 1000.6 1.5 97
2019-11-18 07:00:00 6.3 2 Sudeste 4 Sudoeste 0 1000.1 1.3 96
2019-11-18 06:00:00 6 2 Sudoeste 5 Sudeste 0 1000 1.6 95
2019-11-18 05:00:00 6.7 2 Sudoeste 5 Sur 0 999.1 1 94
2019-11-18 04:00:00 6.7 2 Sudeste 4 Sudoeste 0 998.8 1 95
2019-11-18 03:00:00 6.7 0 Calma 5 Sudoeste 0 998.4 1.1 94
2019-11-18 02:00:00 6.7 2 Este 5 Este 0 998.1 0.8 92
2019-11-18 01:00:00 7.9 0 Calma 5 Oeste 0 997.8 0.9 91
2019-11-18 00:00:00 8.9 3 Nordeste 8 Nordeste 0 997.3 0.9 87
2019-11-17 23:00:00 9.2 3 Norte 10 Norte 0 997.3 1.2 86
2019-11-17 22:00:00 9.2 3 Norte 9 Este 0 996.9 0.8 85
2019-11-17 21:00:00 9.1 4 Oeste 7 Oeste 0.2 996.4 0.6 86
2019-11-17 20:00:00 9.6 3 Sur 9 Sur 0 996.1 0.9 79
2019-11-17 19:00:00 10.6 3 Nordeste 16 Oeste 0 996.1 0.8 72
2019-11-17 18:00:00 11.8 4 Nordeste 15 Sudoeste 0 995.8 0.9 67
2019-11-17 17:00:00 13.1 5 Oeste 17 Oeste 0.2 995.2 -0.2 63
2019-11-17 16:00:00 12.5 6 Norte 27 Noroeste 0 995.3 -0.6 69
2019-11-17 15:00:00 13.9 5 Oeste 16 Sudoeste 0 994.9 -1.5 68
2019-11-17 14:00:00 12.3 2 Oeste 7 Sur 0 995.4 -0.9 83
2019-11-17 13:00:00 11 4 Sudeste 8 Sudeste 0 995.9 0.1 93
2019-11-17 12:00:00 10.1 2 Sur 5 Oeste 0 996.4 0.9 95
2019-11-17 11:00:00 9.7 3 Sudoeste 8 Oeste 0.4 996.3 1 96
2019-11-17 10:00:00 9 2 Este 6 Este 1.2 995.8 0.8 95
2019-11-17 09:00:00 8.9 0 Calma 4 Sudoeste 0.2 995.5 0.3 94
2019-11-17 08:00:00 9 0 Calma 5 Nordeste 0.4 995.3 -0.5 92
2019-11-17 07:00:00 8.9 0 Calma 8 Sur 0 995 -1.5 91
2019-11-17 06:00:00 8.7 3 Sur 6 Sur 0 995.2 -1.5 92
2019-11-17 05:00:00 8.6 4 Sur 9 Sur 0 995.8 -1.2 91
2019-11-17 04:00:00 8.4 0 Calma 4 Sudeste 0 996.5 -1.5 90
2019-11-17 03:00:00 8.4 0 Calma 5 Oeste 0 996.7 -1.5 91
2019-11-17 02:00:00 8.4 2 Sudeste 5 Sudeste 0 997 -1.5 90
2019-11-17 01:00:00 8.5 2 Oeste 5 Sudeste 0 998 -0.6 90
2019-11-17 00:00:00 8.8 3 Oeste 5 Noroeste 0.2 998.2 -0.7 85
2019-11-16 23:00:00 9 2 Sur 7 Sur 0 998.5 -0.4 81
2019-11-16 22:00:00 9 3 Sur 8 Sudoeste 0 998.6 -0.3 81
2019-11-16 21:00:00 9.1 3 Sur 9 Sur 0 998.9 -0.3 80
2019-11-16 20:00:00 9.5 4 Sudeste 9 Sudeste 0 998.9 -0.2 77
2019-11-16 19:00:00 9.6 5 Sudeste 9 Sudeste 0 998.9 -0.3 76
2019-11-16 18:00:00 9.8 4 Sudeste 9 Sudeste 0 999.2 0 76
2019-11-16 17:00:00 10.2 3 Sudeste 18 Oeste 0 999.1 -0.4 72
2019-11-16 16:00:00 11.1 8 Sudoeste 17 Oeste 0 999.2 -0.8 63
2019-11-16 15:00:00 11.3 4 Sudoeste 8 Oeste 0 999.2 -1.4 67
2019-11-16 14:00:00 9.6 2 Nordeste 7 Sudoeste 0 999.5 -1.2 79
2019-11-16 13:00:00 8.1 2 Sudeste 9 Sudoeste 0 1000 -0.4 82
2019-11-16 12:00:00 6.7 3 Sur 8 Sudoeste 0 1000.6 0.7 89
2019-11-16 11:00:00 5.1 3 Sur 7 Sudoeste 0 1000.7 1.2 95
2019-11-16 10:00:00 4.5 3 Sur 5 Oeste 0 1000.4 1.4 96
2019-11-16 09:00:00 4 3 Sudoeste 7 Oeste 0 999.9 1.5 96
2019-11-16 08:00:00 3.9 0 Calma 6 Sudeste 0 999.5 1.4 96
2019-11-16 07:00:00 3.6 3 Sudeste 5 Oeste 0 999 0.9 96
2019-11-16 06:00:00 3.1 3 Sudeste 5 Sur 0 998.4 1 95
2019-11-16 05:00:00 2.7 2 Sudoeste 6 Oeste 0 998.1 1 95
2019-11-16 04:00:00 2.7 3 Oeste 4 Oeste 0 998.1 1.2 94
2019-11-16 03:00:00 3.5 0 Calma 4 Sudeste 0 997.4 0.9 92
2019-11-16 02:00:00 4.5 2 Sudoeste 6 Este 0 997.1 1 90
2019-11-16 01:00:00 5.5 3 Sur 9 Norte 0 996.9 1.3 87
2019-11-16 00:00:00 5.4 2 Este 10 Oeste 0 996.5 1.7 90
2019-11-15 23:00:00 6.2 2 Oeste 17 Oeste 0.2 996.1 1.8 85
2019-11-15 22:00:00 7.1 5 Oeste 15 Oeste 0 995.6 2 77
2019-11-15 21:00:00 7.1 4 Norte 14 Oeste 0 994.8 1.9 78
2019-11-15 20:00:00 7.2 4 Oeste 14 Oeste 0 994.3 2 76
2019-11-15 19:00:00 7 4 Sudoeste 30 Oeste 0 993.6 1.5 77
2019-11-15 18:00:00 8.4 9 Oeste 20 Oeste 0 992.9 1.1 74
2019-11-15 17:00:00 8.8 5 Sudoeste 18 Noroeste 0 992.3 0.3 73
2019-11-15 16:00:00 9.1 6 Oeste 23 Oeste 0 992.1 -0.8 70
2019-11-15 15:00:00 10 9 Oeste 24 Oeste 0 991.8 -1.9 61
2019-11-15 14:00:00 11 11 Oeste 23 Noroeste 0 992 -1.6 59
2019-11-15 13:00:00 9.6 8 Oeste 22 Oeste 0.2 992.9 -0.8 69
2019-11-15 12:00:00 8.4 10 Oeste 24 Oeste 0 993.7 0.5 75
2019-11-15 11:00:00 8 5 Noroeste 16 Oeste 0 993.6 0.9 71
2019-11-15 10:00:00 6.5 3 Norte 9 Oeste 0 993.7 1.8 81
2019-11-15 09:00:00 4.7 2 Sur 9 Nordeste 0 993.2 1.4 91
2019-11-15 08:00:00 4.7 2 Sur 8 Este 0 992.7 0.8 89
2019-11-15 07:00:00 5.4 5 Nordeste 9 Nordeste 0 991.9 0.2 85
2019-11-15 06:00:00 5.8 2 Sudoeste 9 Noroeste 0 991.8 0.2 83
2019-11-15 05:00:00 6 4 Oeste 13 Oeste 0 991.9 0.5 80
2019-11-15 04:00:00 6 4 Oeste 10 Oeste 0 991.7 0.4 82
2019-11-15 03:00:00 6.2 3 Oeste 15 Oeste 0 991.6 0.1 80
2019-11-15 02:00:00 6.3 6 Oeste 17 Oeste 0 991.4 0.2 78
2019-11-15 01:00:00 6.2 3 Sudoeste 9 Oeste 0.2 991.3 0.7 85
2019-11-15 00:00:00 7 2 Sudoeste 18 Oeste 0 991.5 1.5 81